Time;durP1;ratioP1;P1;durP2;ratioP2;P2;SDS_P1;SDS_P2;PMS_P1;PMS_P2;Temp;Humidity;BMP_temperature;BMP_pressure;BME280_temperature;BME280_humidity;BME280_pressure;Samples;Min_cycle;Max_cycle;Signal;HPM_P1;HPM_P2
2023/04/30 00:00:31;;;;;;;9.60;5.90;;;;;;;8.20;54.28;99367.06;107521;1254;73968;-38
2023/04/30 00:02:58;;;;;;;14.30;6.30;;;;;;;8.19;54.37;99370.34;107463;1254;60167;-38
2023/04/30 00:05:26;;;;;;;14.90;7.30;;;;;;;8.17;54.61;99370.54;107400;1253;62868;-38
2023/04/30 00:07:53;;;;;;;10.10;5.60;;;;;;;8.16;54.81;99368.58;107392;1254;75990;-38
2023/04/30 00:10:20;;;;;;;12.20;5.80;;;;;;;8.16;54.92;99369.89;107573;1254;70259;-38
2023/04/30 00:12:47;;;;;;;9.40;5.10;;;;;;;8.16;55.20;99368.19;107561;1254;74653;-38
2023/04/30 00:15:15;;;;;;;10.60;4.90;;;;;;;8.16;55.22;99367.02;107599;1254;61623;-37
2023/04/30 00:17:42;;;;;;;9.30;5.10;;;;;;;8.15;55.40;99368.23;107432;1253;61111;-37
2023/04/30 00:20:11;;;;;;;8.90;4.50;;;;;;;8.14;55.42;99370.05;107386;1253;76115;-38
2023/04/30 00:22:38;;;;;;;8.40;4.90;;;;;;;8.13;55.68;99370.55;107431;1254;69647;-38
2023/04/30 00:25:06;;;;;;;9.40;5.20;;;;;;;8.10;55.54;99369.10;107497;1254;73984;-38
2023/04/30 00:27:33;;;;;;;11.10;5.40;;;;;;;8.04;55.36;99374.30;107633;1254;60859;-37
2023/04/30 00:30:00;;;;;;;11.20;6.20;;;;;;;7.95;55.18;99375.38;107517;1254;60448;-37
2023/04/30 00:32:27;;;;;;;11.80;6.50;;;;;;;7.85;55.03;99379.38;107517;1254;74012;-38
2023/04/30 00:34:55;;;;;;;12.20;6.60;;;;;;;7.74;55.16;99376.97;107574;1254;69979;-37
2023/04/30 00:37:23;;;;;;;14.30;7.00;;;;;;;7.64;55.53;99371.52;107623;1254;71933;-38
2023/04/30 00:39:51;;;;;;;12.00;6.80;;;;;;;7.57;55.83;99368.66;107580;1254;61736;-37
2023/04/30 00:42:18;;;;;;;13.00;6.10;;;;;;;7.51;56.01;99363.23;106831;1254;1003079;-37
2023/04/30 00:44:46;;;;;;;9.50;5.70;;;;;;;7.46;56.15;99360.70;107414;1253;74568;-37
2023/04/30 00:47:13;;;;;;;8.70;4.80;;;;;;;7.42;56.52;99352.27;107424;1254;67384;-37
2023/04/30 00:49:40;;;;;;;10.90;4.10;;;;;;;7.41;57.18;99351.69;107581;1257;74821;-37
2023/04/30 00:52:08;;;;;;;7.40;4.00;;;;;;;7.41;57.51;99349.31;107411;1258;60662;-37
2023/04/30 00:54:35;;;;;;;8.00;4.70;;;;;;;7.37;57.63;99339.77;107377;1254;62644;-37
2023/04/30 00:57:02;;;;;;;6.00;3.80;;;;;;;7.42;57.71;99343.39;107419;1258;76173;-37
2023/04/30 00:59:30;;;;;;;7.10;4.00;;;;;;;7.42;57.87;99341.32;107301;1254;70670;-37
2023/04/30 01:01:57;;;;;;;8.00;3.60;;;;;;;7.43;58.00;99338.34;107388;1254;74390;-37
2023/04/30 01:04:25;;;;;;;7.00;4.20;;;;;;;7.43;58.18;99335.86;107394;1255;60476;-37
2023/04/30 01:06:52;;;;;;;5.60;3.20;;;;;;;7.43;58.34;99328.47;107359;1254;62449;-37
2023/04/30 01:09:19;;;;;;;7.50;3.30;;;;;;;7.44;58.67;99327.96;107316;1254;75911;-37
2023/04/30 01:12:02;;;;;;;6.80;3.20;;;;;;;7.46;58.64;99324.46;107312;1254;69753;-38
2023/04/30 01:14:44;;;;;;;5.40;3.10;;;;;;;7.48;58.68;99319.05;107504;1258;74693;-38
2023/04/30 01:17:18;;;;;;;5.30;2.80;;;;;;;7.48;58.69;99316.05;107502;1254;60463;-37
2023/04/30 01:19:45;;;;;;;5.30;2.90;;;;;;;7.50;58.85;99314.24;107482;1254;61201;-38
2023/04/30 01:22:41;;;;;;;5.70;3.00;;;;;;;7.52;58.96;99316.34;107442;1254;75982;-38
2023/04/30 01:25:39;;;;;;;6.60;3.20;;;;;;;7.55;59.16;99316.34;107478;1254;68342;-37
2023/04/30 01:28:18;;;;;;;8.30;3.10;;;;;;;7.54;59.25;99314.39;107416;1253;75086;-37
2023/04/30 01:30:47;;;;;;;5.40;3.00;;;;;;;7.53;59.14;99312.65;107482;1254;61515;-37
2023/04/30 01:33:14;;;;;;;5.60;2.70;;;;;;;7.54;59.29;99318.08;107501;1256;62622;-38
2023/04/30 01:36:08;;;;;;;4.80;3.00;;;;;;;7.56;59.32;99317.62;107486;1259;72840;-37
2023/04/30 01:39:05;;;;;;;7.60;2.90;;;;;;;7.58;59.41;99312.66;107352;1254;69327;-37
2023/04/30 01:41:51;;;;;;;6.20;2.70;;;;;;;7.59;59.52;99310.83;107333;1257;75111;-38
2023/04/30 01:44:33;;;;;;;5.50;3.10;;;;;;;7.59;59.63;99307.36;107478;1254;62364;-38
2023/04/30 01:47:05;;;;;;;7.40;3.00;;;;;;;7.59;59.48;99300.21;107518;1254;61126;-38
2023/04/30 01:49:57;;;;;;;7.80;3.70;;;;;;;7.59;59.23;99300.90;107408;1254;75227;-37
2023/04/30 01:52:57;;;;;;;8.10;4.30;;;;;;;7.57;58.83;99304.46;107397;1253;69431;-37
2023/04/30 01:55:42;;;;;;;7.60;4.20;;;;;;;7.52;58.64;99299.91;107385;1256;74920;-38
2023/04/30 01:58:13;;;;;;;8.90;4.40;;;;;;;7.43;58.68;99293.48;107417;1255;60171;-37
2023/04/30 02:00:41;;;;;;;11.70;5.00;;;;;;;7.33;58.71;99291.96;106745;1258;1002838;-38
2023/04/30 02:03:08;;;;;;;8.40;5.00;;;;;;;7.27;58.95;99291.60;107427;1254;75898;-37
2023/04/30 02:05:35;;;;;;;7.90;4.60;;;;;;;7.18;59.11;99288.42;107517;1259;70036;-38
2023/04/30 02:08:03;;;;;;;6.60;4.30;;;;;;;7.12;59.29;99285.12;107312;1254;74759;-37
2023/04/30 02:10:32;;;;;;;7.60;4.50;;;;;;;7.04;59.36;99284.65;107474;1254;60459;-38
2023/04/30 02:12:59;;;;;;;11.50;5.10;;;;;;;6.97;59.49;99280.96;107522;1254;61248;-38
2023/04/30 02:15:27;;;;;;;8.80;4.30;;;;;;;6.92;59.66;99287.43;107475;1254;76110;-38
2023/04/30 02:17:54;;;;;;;8.80;5.00;;;;;;;6.86;59.76;99287.08;107553;1254;69054;-37
2023/04/30 02:20:21;;;;;;;7.00;3.90;;;;;;;6.81;59.92;99284.98;107394;1254;74972;-37
2023/04/30 02:22:49;;;;;;;9.10;4.90;;;;;;;6.75;60.11;99286.64;107516;1254;62050;-37
2023/04/30 02:25:17;;;;;;;9.80;4.80;;;;;;;6.71;60.33;99285.43;107505;1254;62844;-37
2023/04/30 02:27:45;;;;;;;8.00;4.20;;;;;;;6.70;60.37;99286.80;107327;1253;75004;-37
2023/04/30 02:30:12;;;;;;;9.50;4.50;;;;;;;6.76;60.25;99285.00;107497;1254;70389;-38
2023/04/30 02:32:39;;;;;;;8.10;4.60;;;;;;;6.80;60.19;99283.66;107471;1254;74990;-37
2023/04/30 02:35:07;;;;;;;7.80;4.50;;;;;;;6.79;60.11;99282.08;107553;1254;62504;-37
2023/04/30 02:37:34;;;;;;;13.30;4.40;;;;;;;6.79;60.06;99282.30;107520;1254;60617;-38
2023/04/30 02:40:01;;;;;;;9.00;4.30;;;;;;;6.79;60.13;99282.15;107557;1254;76116;-37
2023/04/30 02:42:29;;;;;;;8.20;4.80;;;;;;;6.77;60.17;99283.41;107423;1254;70160;-38
2023/04/30 02:44:56;;;;;;;6.00;4.20;;;;;;;6.74;60.22;99278.15;107407;1254;75188;-37
2023/04/30 02:47:23;;;;;;;7.80;4.60;;;;;;;6.72;60.31;99279.02;107438;1254;59693;-38
2023/04/30 02:49:50;;;;;;;11.20;5.10;;;;;;;6.69;60.29;99278.11;107462;1258;61359;-38
2023/04/30 02:52:18;;;;;;;8.00;5.60;;;;;;;6.65;60.20;99275.38;107402;1253;76143;-37
2023/04/30 02:54:45;;;;;;;10.90;5.70;;;;;;;6.62;60.33;99273.11;107473;1254;69763;-37
2023/04/30 02:57:13;;;;;;;10.30;6.10;;;;;;;6.57;60.28;99279.60;107432;1254;72518;-37
2023/04/30 02:59:44;;;;;;;12.20;6.00;;;;;;;6.52;60.46;99274.90;107547;1254;60447;-37
2023/04/30 03:02:12;;;;;;;10.90;6.10;;;;;;;6.47;60.54;99273.44;107633;1254;60431;-37
2023/04/30 03:04:40;;;;;;;10.40;5.30;;;;;;;6.42;60.85;99270.79;107392;1254;73169;-36
2023/04/30 03:07:07;;;;;;;9.70;5.30;;;;;;;6.38;61.16;99275.41;107512;1254;67457;-37
2023/04/30 03:09:35;;;;;;;10.50;5.80;;;;;;;6.35;61.54;99277.39;107373;1253;72743;-37
2023/04/30 03:12:03;;;;;;;9.80;4.90;;;;;;;6.34;61.71;99275.56;107501;1254;60161;-37
2023/04/30 03:14:30;;;;;;;10.40;5.00;;;;;;;6.34;62.15;99277.11;107487;1254;61997;-37
2023/04/30 03:16:57;;;;;;;8.50;4.10;;;;;;;6.39;62.32;99273.08;107599;1254;74015;-37
2023/04/30 03:19:24;;;;;;;6.90;4.30;;;;;;;6.49;62.60;99273.02;107536;1258;69295;-37
2023/04/30 03:21:52;;;;;;;9.40;4.20;;;;;;;6.56;62.67;99266.46;107533;1254;73403;-37
2023/04/30 03:24:19;;;;;;;8.50;4.70;;;;;;;6.60;62.79;99268.45;107516;1258;61215;-37
2023/04/30 03:26:46;;;;;;;6.70;4.00;;;;;;;6.63;62.83;99266.54;107485;1254;61458;-37
2023/04/30 03:29:13;;;;;;;9.00;4.20;;;;;;;6.66;63.16;99264.79;107479;1254;74462;-37
2023/04/30 03:31:41;;;;;;;8.40;3.40;;;;;;;6.69;63.35;99266.97;107720;1254;67433;-36
2023/04/30 03:34:09;;;;;;;6.60;3.40;;;;;;;6.73;63.61;99269.58;107497;1254;74215;-38
2023/04/30 03:36:36;;;;;;;5.40;3.30;;;;;;;6.77;63.82;99266.16;107331;1259;61015;-37
2023/04/30 03:39:03;;;;;;;5.40;3.30;;;;;;;6.81;64.07;99264.38;107508;1253;61532;-37
2023/04/30 03:41:30;;;;;;;5.90;3.60;;;;;;;6.85;63.96;99262.01;107435;1254;75398;-37
2023/04/30 03:43:58;;;;;;;8.80;4.10;;;;;;;6.87;63.84;99261.56;107391;1254;69192;-37
2023/04/30 03:46:25;;;;;;;9.70;3.40;;;;;;;6.90;63.66;99262.64;107362;1254;71708;-37
2023/04/30 03:48:53;;;;;;;8.50;3.90;;;;;;;6.96;63.72;99260.06;107504;1254;61709;-38
2023/04/30 03:51:20;;;;;;;5.50;3.10;;;;;;;7.08;63.49;99260.29;107426;1254;62112;-38
2023/04/30 03:53:47;;;;;;;5.60;3.30;;;;;;;7.16;63.71;99256.73;107390;1254;76141;-37
2023/04/30 03:56:14;;;;;;;6.70;3.30;;;;;;;7.22;63.85;99258.71;107473;1258;69960;-38
2023/04/30 03:58:42;;;;;;;5.20;3.80;;;;;;;7.27;63.79;99254.70;107497;1254;74958;-37
2023/04/30 04:01:09;;;;;;;5.00;3.50;;;;;;;7.34;63.55;99252.05;107468;1259;62334;-38
2023/04/30 04:03:37;;;;;;;9.30;4.20;;;;;;;7.39;63.16;99252.05;107392;1254;62520;-37
2023/04/30 04:06:04;;;;;;;8.40;5.10;;;;;;;7.41;62.85;99249.13;107534;1259;72654;-37
2023/04/30 04:08:33;;;;;;;11.60;5.70;;;;;;;7.43;62.61;99252.65;107464;1254;69394;-38
2023/04/30 04:11:00;;;;;;;13.20;5.60;;;;;;;7.45;62.32;99255.55;107410;1254;73306;-38
2023/04/30 04:13:27;;;;;;;10.60;5.70;;;;;;;7.42;61.80;99256.16;107442;1254;60546;-38
2023/04/30 04:15:55;;;;;;;10.10;5.30;;;;;;;7.34;61.67;99250.61;106743;1254;1003519;-38
2023/04/30 04:18:22;;;;;;;8.20;5.40;;;;;;;7.29;61.98;99250.30;107364;1254;74847;-38
2023/04/30 04:20:49;;;;;;;9.70;5.50;;;;;;;7.24;61.92;99253.55;107567;1254;68418;-38
2023/04/30 04:23:17;;;;;;;10.10;5.60;;;;;;;7.22;62.06;99257.48;107480;1254;73775;-38
2023/04/30 04:25:48;;;;;;;8.20;4.90;;;;;;;7.21;62.20;99258.61;107169;1257;211611;-38
2023/04/30 04:30:03;;;;;;;8.40;4.20;;;;;;;7.31;62.48;99254.36;104398;1289;600329;-37
2023/04/30 04:32:31;;;;;;;10.60;4.80;;;;;;;7.37;62.61;99255.16;106767;1267;60462;-37
2023/04/30 04:34:59;;;;;;;8.50;4.70;;;;;;;7.46;62.66;99252.65;106735;1267;62648;-37
2023/04/30 04:37:26;;;;;;;7.80;3.70;;;;;;;7.56;62.75;99251.61;106739;1266;74647;-37
2023/04/30 04:39:53;;;;;;;7.70;4.10;;;;;;;7.65;62.90;99256.15;106777;1262;70268;-37
2023/04/30 04:42:21;;;;;;;7.60;3.50;;;;;;;7.77;63.04;99257.08;107153;1257;74021;-37
2023/04/30 04:44:50;;;;;;;5.30;3.70;;;;;;;7.86;62.60;99256.66;107116;1256;200003;-37
2023/04/30 04:47:21;;;;;;;6.20;3.30;;;;;;;7.96;62.44;99261.17;107270;1254;61239;-37
2023/04/30 04:49:49;;;;;;;6.00;3.10;;;;;;;8.04;62.14;99259.93;107373;1254;73246;-37
2023/04/30 04:52:16;;;;;;;6.80;3.20;;;;;;;8.12;62.20;99255.83;107365;1260;66773;-37
2023/04/30 04:54:43;;;;;;;5.20;3.40;;;;;;;8.21;61.75;99259.15;107320;1257;75013;-37
2023/04/30 04:57:11;;;;;;;7.20;3.20;;;;;;;8.29;61.47;99257.98;107322;1254;59582;-37
2023/04/30 04:59:38;;;;;;;4.30;3.10;;;;;;;8.36;61.33;99263.10;107286;1254;61945;-37
2023/04/30 05:02:05;;;;;;;4.30;2.50;;;;;;;8.44;60.99;99262.30;107312;1254;75870;-37
2023/04/30 05:04:33;;;;;;;3.70;2.80;;;;;;;8.52;60.90;99264.14;107440;1254;67274;-37
2023/04/30 05:07:01;;;;;;;5.20;2.80;;;;;;;8.68;60.70;99264.54;107156;1255;74741;-37
2023/04/30 05:09:28;;;;;;;5.00;2.70;;;;;;;8.81;60.55;99262.77;107297;1255;62709;-37
2023/04/30 05:11:55;;;;;;;3.30;2.60;;;;;;;8.92;60.60;99268.59;107334;1254;61442;-37
2023/04/30 05:14:22;;;;;;;4.60;2.50;;;;;;;9.04;60.53;99269.35;107359;1254;75195;-37
2023/04/30 05:16:50;;;;;;;5.10;2.30;;;;;;;9.15;60.18;99269.30;107329;1254;67832;-37
2023/04/30 05:19:17;;;;;;;6.50;2.70;;;;;;;9.23;59.18;99273.17;107342;1259;75000;-37
2023/04/30 05:21:45;;;;;;;6.90;2.90;;;;;;;9.23;58.98;99277.76;107366;1254;61671;-37
2023/04/30 05:24:13;;;;;;;5.70;2.90;;;;;;;9.22;58.83;99277.65;107692;1251;62619;-37
2023/04/30 05:26:40;;;;;;;6.20;2.60;;;;;;;9.20;58.97;99275.11;107688;1251;75216;-36
2023/04/30 05:29:07;;;;;;;4.60;2.70;;;;;;;9.21;59.40;99274.91;107636;1257;70244;-36
2023/04/30 05:31:35;;;;;;;4.80;3.00;;;;;;;9.25;59.05;99274.06;107608;1254;74804;-36
2023/04/30 05:34:03;;;;;;;5.70;2.90;;;;;;;9.27;58.80;99272.55;107532;1253;62664;-37
2023/04/30 05:36:31;;;;;;;5.60;2.50;;;;;;;9.27;58.45;99269.70;107566;1258;60821;-37
2023/04/30 05:38:58;;;;;;;4.40;2.50;;;;;;;9.31;59.02;99269.27;107577;1254;74991;-37
2023/04/30 05:41:25;;;;;;;7.20;2.70;;;;;;;9.38;58.51;99273.14;107542;1253;68344;-37
2023/04/30 05:43:52;;;;;;;5.00;2.40;;;;;;;9.44;58.06;99269.41;107588;1253;74118;-37
2023/04/30 05:46:19;;;;;;;6.30;2.80;;;;;;;9.49;57.70;99268.27;107501;1253;60411;-36
2023/04/30 05:48:47;;;;;;;6.30;3.50;;;;;;;9.55;57.78;99268.72;107526;1253;63025;-36
2023/04/30 05:51:14;;;;;;;4.60;3.10;;;;;;;9.61;57.14;99265.13;107527;1253;71918;-37
2023/04/30 05:53:42;;;;;;;7.90;2.80;;;;;;;9.67;56.15;99270.04;107512;1258;69363;-36
2023/04/30 05:56:09;;;;;;;5.20;2.70;;;;;;;9.68;55.98;99268.35;107564;1258;74323;-36
2023/04/30 05:58:38;;;;;;;4.90;2.80;;;;;;;9.69;55.75;99267.30;107623;1253;60220;-37
2023/04/30 06:01:05;;;;;;;4.50;2.50;;;;;;;9.74;55.70;99267.17;107591;1253;61507;-38
2023/04/30 06:03:32;;;;;;;5.50;3.30;;;;;;;9.78;55.98;99260.98;107547;1253;75071;-38
2023/04/30 06:05:59;;;;;;;6.60;2.70;;;;;;;9.84;56.01;99257.16;107541;1253;70361;-38
2023/04/30 06:08:28;;;;;;;5.50;2.80;;;;;;;9.89;55.48;99254.88;107575;1253;74856;-38
2023/04/30 06:10:55;;;;;;;4.80;2.60;;;;;;;9.90;54.97;99254.42;107604;1253;61876;-37
2023/04/30 06:13:22;;;;;;;4.70;2.60;;;;;;;9.92;55.41;99257.16;107557;1253;63107;-37
2023/04/30 06:15:50;;;;;;;2.70;2.50;;;;;;;9.97;55.82;99260.29;107511;1253;74819;-36
2023/04/30 06:18:17;;;;;;;5.30;2.90;;;;;;;10.05;55.68;99254.94;107504;1253;69360;-37
2023/04/30 06:20:45;;;;;;;5.70;2.80;;;;;;;10.07;55.13;99248.87;107499;1253;74921;-36
2023/04/30 06:23:12;;;;;;;7.90;2.80;;;;;;;10.18;54.43;99254.66;107586;1253;61874;-36
2023/04/30 06:25:39;;;;;;;4.70;3.10;;;;;;;10.22;54.32;99255.46;107589;1254;62037;-37
2023/04/30 06:28:08;;;;;;;7.10;3.00;;;;;;;10.28;53.97;99251.53;107532;1253;75309;-37
2023/04/30 06:30:37;;;;;;;5.40;2.90;;;;;;;10.30;53.71;99246.39;107596;1253;67872;-37
2023/04/30 06:33:04;;;;;;;3.70;2.60;;;;;;;10.33;53.18;99249.06;107608;1253;74810;-37
2023/04/30 06:35:31;;;;;;;5.20;2.50;;;;;;;10.33;53.00;99250.32;107600;1253;59495;-36
2023/04/30 06:37:59;;;;;;;4.30;2.20;;;;;;;10.37;52.73;99248.29;107545;1253;61857;-38
2023/04/30 06:40:26;;;;;;;3.80;2.40;;;;;;;10.38;51.82;99243.76;107597;1253;75306;-37
2023/04/30 06:42:53;;;;;;;3.80;2.00;;;;;;;10.42;52.01;99237.77;107598;1253;70246;-38
2023/04/30 06:45:20;;;;;;;4.30;2.20;;;;;;;10.50;52.38;99235.98;107610;1253;74163;-37
2023/04/30 06:47:48;;;;;;;3.40;2.10;;;;;;;10.60;51.57;99238.15;107576;1253;62295;-38
2023/04/30 06:50:15;;;;;;;4.80;2.20;;;;;;;10.71;51.10;99239.41;107618;1253;62641;-37
2023/04/30 06:52:43;;;;;;;3.80;2.10;;;;;;;10.81;51.01;99241.66;107572;1253;74571;-38
2023/04/30 06:55:10;;;;;;;3.90;2.10;;;;;;;10.93;49.94;99235.43;107595;1258;70358;-38
2023/04/30 06:57:38;;;;;;;4.80;2.20;;;;;;;11.04;48.58;99235.05;107641;1253;74951;-37
2023/04/30 07:00:07;;;;;;;3.90;2.10;;;;;;;11.12;48.42;99229.13;107567;1253;62517;-38
2023/04/30 07:02:34;;;;;;;5.60;1.90;;;;;;;11.20;46.63;99224.59;107642;1253;62738;-38
2023/04/30 07:05:02;;;;;;;2.60;2.00;;;;;;;11.27;46.10;99224.06;106785;1257;1003822;-37
2023/04/30 07:07:30;;;;;;;3.10;1.90;;;;;;;11.34;46.47;99221.29;107524;1253;69402;-37
2023/04/30 07:09:57;;;;;;;4.40;1.90;;;;;;;11.41;45.93;99217.20;107681;1259;74970;-37
2023/04/30 07:12:24;;;;;;;4.60;2.30;;;;;;;11.49;45.38;99217.06;107507;1253;62735;-38
2023/04/30 07:14:52;;;;;;;3.30;2.10;;;;;;;11.53;44.59;99213.86;107574;1254;61407;-37
2023/04/30 07:17:19;;;;;;;3.20;2.00;;;;;;;11.58;44.87;99210.67;107587;1253;75320;-37
2023/04/30 07:19:46;;;;;;;4.30;1.70;;;;;;;11.66;45.30;99208.67;107560;1253;70065;-37
2023/04/30 07:22:13;;;;;;;2.50;1.70;;;;;;;11.71;45.12;99196.56;107563;1253;74981;-37
2023/04/30 07:24:41;;;;;;;4.60;1.80;;;;;;;11.86;45.23;99199.07;107613;1253;60151;-37
2023/04/30 07:27:08;;;;;;;4.70;2.00;;;;;;;11.96;44.28;99196.70;107605;1253;62228;-37
2023/04/30 07:29:36;;;;;;;3.20;2.10;;;;;;;12.04;43.98;99195.29;107556;1253;74525;-37
2023/04/30 07:32:04;;;;;;;5.50;1.80;;;;;;;12.11;44.07;99192.50;107518;1253;69325;-37
2023/04/30 07:34:31;;;;;;;2.50;1.70;;;;;;;12.16;43.78;99188.60;107602;1257;74084;-37
2023/04/30 07:36:58;;;;;;;3.50;1.80;;;;;;;12.21;43.82;99187.63;107549;1253;61384;-37
2023/04/30 07:39:25;;;;;;;3.90;1.90;;;;;;;12.26;43.72;99191.26;107572;1257;61452;-37
2023/04/30 07:41:52;;;;;;;3.40;1.90;;;;;;;12.28;43.37;99191.48;107527;1253;75306;-37
2023/04/30 07:44:20;;;;;;;6.20;1.90;;;;;;;12.24;42.05;99192.55;107591;1257;69171;-37
2023/04/30 07:46:47;;;;;;;5.90;1.70;;;;;;;12.21;42.62;99189.48;107593;1253;74981;-36
2023/04/30 07:49:14;;;;;;;3.20;1.70;;;;;;;12.25;42.89;99191.32;106816;1253;1003002;-37
2023/04/30 07:51:42;;;;;;;8.80;1.90;;;;;;;12.31;42.49;99190.67;107566;1253;61185;-37
2023/04/30 07:54:09;;;;;;;7.80;2.30;;;;;;;12.33;42.41;99184.24;107281;1258;75200;-37
2023/04/30 07:56:36;;;;;;;4.10;2.10;;;;;;;12.34;42.38;99181.30;107489;1253;69009;-37
2023/04/30 07:59:04;;;;;;;3.70;1.90;;;;;;;12.40;43.47;99179.56;107490;1253;74025;-37
2023/04/30 08:01:31;;;;;;;2.60;1.60;;;;;;;12.51;42.88;99179.65;107563;1253;62616;-36
2023/04/30 08:03:59;;;;;;;5.60;1.70;;;;;;;12.62;41.92;99178.35;107551;1253;60806;-37
2023/04/30 08:06:26;;;;;;;3.00;1.80;;;;;;;12.68;41.06;99175.50;107605;1253;75384;-36
2023/04/30 08:08:53;;;;;;;3.40;2.00;;;;;;;12.70;41.22;99178.41;107623;1253;70301;-36
2023/04/30 08:11:21;;;;;;;4.00;1.90;;;;;;;12.70;40.83;99175.67;107560;1253;74367;-37
2023/04/30 08:13:48;;;;;;;5.10;1.70;;;;;;;12.70;40.86;99178.73;106823;1253;1003771;-37
2023/04/30 08:16:15;;;;;;;2.70;1.80;;;;;;;12.71;40.97;99176.86;107610;1253;62476;-37
2023/04/30 08:18:45;;;;;;;3.80;1.90;;;;;;;12.74;40.68;99174.09;107593;1253;75240;-37
2023/04/30 08:21:12;;;;;;;2.80;2.00;;;;;;;12.78;40.46;99172.55;107554;1252;69784;-37
2023/04/30 08:23:39;;;;;;;3.30;1.70;;;;;;;12.80;40.21;99172.89;107559;1253;75274;-37
2023/04/30 08:26:07;;;;;;;4.90;1.80;;;;;;;12.84;40.25;99173.14;107555;1253;60190;-37
2023/04/30 08:28:34;;;;;;;3.20;1.80;;;;;;;12.91;39.69;99172.73;107589;1257;61546;-37
2023/04/30 08:31:01;;;;;;;3.00;2.10;;;;;;;12.95;39.65;99174.14;107634;1253;72403;-37
2023/04/30 08:33:28;;;;;;;1.80;1.60;;;;;;;12.94;39.62;99167.61;107527;1258;70157;-37
2023/04/30 08:35:55;;;;;;;3.20;1.80;;;;;;;12.95;39.06;99169.17;107489;1253;74736;-37
2023/04/30 08:38:22;;;;;;;4.20;1.90;;;;;;;12.98;39.15;99169.98;107468;1253;61306;-37
2023/04/30 08:41:03;;;;;;;3.10;1.70;;;;;;;13.00;38.19;99168.20;107508;1253;61347;-36
2023/04/30 08:43:30;;;;;;;3.40;1.50;;;;;;;12.97;38.27;99169.88;107475;1253;76126;-36
2023/04/30 08:45:58;;;;;;;5.20;1.70;;;;;;;12.94;38.54;99168.70;107328;1253;69112;-37
2023/04/30 08:48:25;;;;;;;2.50;1.70;;;;;;;12.94;38.79;99172.59;107486;1253;74067;-37
2023/04/30 08:50:52;;;;;;;4.90;1.60;;;;;;;12.98;39.33;99172.23;107355;1253;61600;-37
2023/04/30 08:53:20;;;;;;;3.10;1.90;;;;;;;13.05;38.77;99169.77;107550;1253;62432;-37
2023/04/30 08:55:47;;;;;;;2.30;1.80;;;;;;;13.10;39.02;99169.98;107396;1258;75932;-37
2023/04/30 08:58:14;;;;;;;4.80;2.00;;;;;;;13.13;38.70;99171.95;107605;1253;70096;-37
2023/04/30 09:00:42;;;;;;;3.70;2.00;;;;;;;13.12;38.58;99166.81;107469;1253;75122;-37
2023/04/30 09:03:09;;;;;;;2.90;1.60;;;;;;;13.10;38.69;99164.06;107505;1253;60243;-37
2023/04/30 09:05:39;;;;;;;3.00;1.70;;;;;;;13.10;38.41;99162.42;107597;1253;62662;-37
2023/04/30 09:08:07;;;;;;;;;;;;;;;13.07;38.10;99161.77;107543;1259;77333;-37
2023/04/30 09:10:34;;;;;;;3.40;1.70;;;;;;;12.98;38.62;99156.75;107602;1252;69167;-37
2023/04/30 09:13:08;;;;;;;3.20;1.80;;;;;;;12.91;39.27;99159.04;107572;1257;75357;-37
2023/04/30 09:15:36;;;;;;;3.20;2.00;;;;;;;12.91;38.38;99156.23;107571;1253;61435;-36
2023/04/30 09:18:16;;;;;;;4.50;2.20;;;;;;;12.87;38.69;99152.25;107640;1253;61504;-37
2023/04/30 09:21:00;;;;;;;4.10;2.00;;;;;;;12.86;38.92;99148.27;107572;1254;76085;-37
2023/04/30 09:23:28;;;;;;;5.10;1.90;;;;;;;12.88;39.27;99147.13;107505;1253;70463;-37
2023/04/30 09:25:55;;;;;;;5.30;2.00;;;;;;;12.93;39.21;99145.38;107517;1253;74980;-37
2023/04/30 09:28:25;;;;;;;2.90;1.80;;;;;;;12.99;39.12;99144.24;107500;1253;61955;-37
2023/04/30 09:30:52;;;;;;;4.10;1.60;;;;;;;13.06;39.24;99144.20;107654;1253;62025;-37
2023/04/30 09:33:19;;;;;;;3.80;2.00;;;;;;;13.12;38.94;99143.00;107565;1253;74875;-37
2023/04/30 09:35:47;;;;;;;5.20;1.70;;;;;;;13.17;38.16;99138.67;107590;1254;69083;-37
2023/04/30 09:38:25;;;;;;;3.60;1.60;;;;;;;13.22;38.04;99133.73;107608;1253;74816;-37
2023/04/30 09:40:52;;;;;;;4.30;1.70;;;;;;;13.28;38.16;99133.14;107560;1253;62187;-37
2023/04/30 09:43:20;;;;;;;3.10;1.80;;;;;;;13.31;37.56;99134.39;107578;1253;61709;-37
2023/04/30 09:45:50;;;;;;;2.70;1.60;;;;;;;13.30;37.42;99130.83;107371;1253;75944;-37
2023/04/30 09:48:20;;;;;;;4.20;1.50;;;;;;;13.30;37.88;99124.67;107517;1257;70258;-37
2023/04/30 09:50:48;;;;;;;3.30;1.70;;;;;;;13.30;38.28;99124.98;107359;1254;72890;-37
2023/04/30 09:53:19;;;;;;;4.00;1.70;;;;;;;13.31;38.00;99125.05;107515;1253;62416;-37
2023/04/30 09:55:47;;;;;;;3.50;1.50;;;;;;;13.34;38.28;99126.85;107595;1253;62062;-37
2023/04/30 09:58:16;;;;;;;2.70;1.40;;;;;;;13.39;38.28;99123.92;107581;1259;75158;-37
2023/04/30 10:00:44;;;;;;;4.20;1.70;;;;;;;13.45;38.32;99124.64;107577;1253;69279;-37
2023/04/30 10:03:13;;;;;;;4.90;1.70;;;;;;;13.51;37.81;99119.84;107432;1253;71105;-37
2023/04/30 10:05:41;;;;;;;3.90;1.60;;;;;;;13.53;37.75;99116.89;107595;1253;60422;-38
2023/04/30 10:08:24;;;;;;;2.30;1.40;;;;;;;13.57;37.36;99118.30;107576;1257;62662;-36
2023/04/30 10:10:57;;;;;;;2.60;1.70;;;;;;;13.56;37.56;99116.89;107466;1253;75513;-38
2023/04/30 10:13:25;;;;;;;3.50;1.50;;;;;;;13.55;37.95;99117.36;107506;1253;70156;-37
2023/04/30 10:15:53;;;;;;;3.40;1.80;;;;;;;13.56;37.64;99118.45;107587;1253;71216;-37
2023/04/30 10:18:33;;;;;;;5.10;1.80;;;;;;;13.55;37.81;99118.30;107395;1253;62082;-36
2023/04/30 10:21:09;;;;;;;4.10;1.60;;;;;;;13.57;37.72;99117.98;107552;1257;61447;-37
2023/04/30 10:23:38;;;;;;;2.10;1.50;;;;;;;13.57;37.47;99114.18;107546;1253;76093;-37
2023/04/30 10:26:05;;;;;;;4.30;1.80;;;;;;;13.61;37.84;99108.73;107545;1253;69838;-38
2023/04/30 10:28:32;;;;;;;2.90;1.80;;;;;;;13.66;38.38;99108.77;107555;1259;74782;-38
2023/04/30 10:30:59;;;;;;;3.10;1.60;;;;;;;13.70;38.45;99102.54;107571;1257;62488;-37
2023/04/30 10:33:40;;;;;;;2.50;1.50;;;;;;;13.70;37.00;99101.22;107307;1257;60558;-38
2023/04/30 10:36:11;;;;;;;4.10;2.00;;;;;;;13.68;36.85;99103.48;107453;1254;76018;-38
2023/04/30 10:38:38;;;;;;;3.40;1.60;;;;;;;13.68;36.25;99104.09;107513;1257;69788;-38
2023/04/30 10:41:06;;;;;;;3.20;1.20;;;;;;;13.69;36.19;99098.03;107362;1254;74968;-38
2023/04/30 10:43:34;;;;;;;2.40;1.50;;;;;;;13.70;36.25;99096.31;107543;1253;61593;-38
2023/04/30 10:46:02;;;;;;;6.10;1.80;;;;;;;13.71;36.12;99095.06;107381;1253;62694;-38
2023/04/30 10:48:33;;;;;;;2.50;1.40;;;;;;;13.71;36.30;99099.11;107613;1254;76212;-38
2023/04/30 10:51:00;;;;;;;4.20;1.60;;;;;;;13.74;36.15;99094.29;107383;1259;68252;-38
2023/04/30 10:53:31;;;;;;;3.40;1.60;;;;;;;13.77;36.71;99092.90;107515;1257;72807;-38
2023/04/30 10:56:00;;;;;;;3.50;1.50;;;;;;;13.83;36.83;99088.55;107505;1257;61426;-38
2023/04/30 10:58:33;;;;;;;3.90;1.40;;;;;;;13.90;36.24;99088.79;107501;1254;61623;-38
2023/04/30 11:01:07;;;;;;;2.80;1.80;;;;;;;13.98;35.72;99089.80;107488;1253;76119;-38
2023/04/30 11:03:35;;;;;;;3.60;1.70;;;;;;;14.03;35.36;99088.33;107499;1257;70230;-38
2023/04/30 11:06:18;;;;;;;3.90;1.50;;;;;;;14.03;35.01;99092.62;107492;1255;74056;-38
2023/04/30 11:08:46;;;;;;;2.50;1.50;;;;;;;14.01;34.43;99092.31;107493;1253;61601;-38
2023/04/30 11:11:19;;;;;;;5.20;1.40;;;;;;;13.93;34.74;99090.29;107592;1255;60962;-38
2023/04/30 11:13:51;;;;;;;2.60;1.50;;;;;;;13.93;35.31;99090.91;107574;1253;75542;-38
2023/04/30 11:16:19;;;;;;;2.60;1.80;;;;;;;13.93;35.71;99087.55;107400;1257;70285;-38
2023/04/30 11:18:46;;;;;;;2.40;1.30;;;;;;;13.96;35.86;99086.70;107311;1259;75098;-38
2023/04/30 11:21:13;;;;;;;4.10;1.70;;;;;;;14.03;36.00;99082.25;107423;1258;61750;-38
2023/04/30 11:23:44;;;;;;;5.10;1.60;;;;;;;14.11;36.03;99079.45;107375;1259;61019;-38
2023/04/30 11:26:12;;;;;;;3.90;1.70;;;;;;;14.17;35.65;99074.70;107400;1254;73899;-38
2023/04/30 11:28:39;;;;;;;3.20;1.50;;;;;;;14.19;35.55;99072.69;107378;1259;68407;-38
2023/04/30 11:31:06;;;;;;;4.50;1.50;;;;;;;14.21;35.29;99071.67;107394;1259;74790;-38
2023/04/30 11:33:34;;;;;;;2.20;1.30;;;;;;;14.25;35.78;99070.66;107382;1259;62677;-38
2023/04/30 11:36:02;;;;;;;2.60;1.60;;;;;;;14.30;35.49;99068.00;106751;1259;1002882;-38
2023/04/30 11:38:32;;;;;;;3.40;1.60;;;;;;;14.32;35.53;99067.91;107511;1253;76266;-38